Time;durP1;ratioP1;P1;durP2;ratioP2;P2;SDS_P1;SDS_P2;PMS_P1;PMS_P2;Temp;Humidity;BMP_temperature;BMP_pressure;BME280_temperature;BME280_humidity;BME280_pressure;Samples;Min_cycle;Max_cycle;Signal;HPM_P1;HPM_P2
2023/05/12 00:02:15;;;;;;;57.27;2.50;;;;;;;;;;5072805;28;20452;-68
2023/05/12 00:04:42;;;;;;;57.37;2.70;;;;;;;;;;5073092;28;20454;-68
2023/05/12 00:07:09;;;;;;;57.27;2.50;;;;;;;;;;5072236;28;20443;-68
2023/05/12 00:09:40;;;;;;;57.40;2.50;;;;;;;;;;5072482;28;20510;-68
2023/05/12 00:12:07;;;;;;;57.77;3.07;;;;;;;;;;5072769;28;20457;-68
2023/05/12 00:14:35;;;;;;;57.27;2.50;;;;;;;;;;5072576;28;20821;-68
2023/05/12 00:17:05;;;;;;;58.53;2.90;;;;;;;;;;5072822;28;20458;-68
2023/05/12 00:19:33;;;;;;;57.33;2.50;;;;;;;;;;5072443;28;20995;-68
2023/05/12 00:22:00;;;;;;;57.13;2.40;;;;;;;;;;5072601;28;20837;-68
2023/05/12 00:24:29;;;;;;;57.47;2.43;;;;;;;;;;5072504;28;20459;-68
2023/05/12 00:26:56;;;;;;;57.43;2.30;;;;;;;;;;5072357;28;20554;-68
2023/05/12 00:29:23;;;;;;;57.70;2.77;;;;;;;;;;5072194;28;20483;-68
2023/05/12 00:31:50;;;;;;;57.60;2.50;;;;;;;;;;5072474;28;20463;-68
2023/05/12 00:34:19;;;;;;;57.20;2.53;;;;;;;;;;5072433;28;20907;-68
2023/05/12 00:36:46;;;;;;;57.70;3.33;;;;;;;;;;5072479;28;20447;-68
2023/05/12 00:39:13;;;;;;;57.40;2.53;;;;;;;;;;5071878;28;20952;-68
2023/05/12 00:41:40;;;;;;;57.37;2.30;;;;;;;;;;5072000;28;21010;-68
2023/05/12 00:44:07;;;;;;;57.33;2.60;;;;;;;;;;5072140;28;20512;-68
2023/05/12 00:46:35;;;;;;;57.37;2.67;;;;;;;;;;5072502;28;20454;-68
2023/05/12 00:49:03;;;;;;;57.57;2.67;;;;;;;;;;5071655;28;20458;-68
2023/05/12 00:51:31;;;;;;;56.87;2.20;;;;;;;;;;5072009;28;20474;-68
2023/05/12 00:53:59;;;;;;;57.60;2.80;;;;;;;;;;5072053;28;20577;-68
2023/05/12 00:56:27;;;;;;;58.00;3.10;;;;;;;;;;5071876;28;20944;-67
2023/05/12 00:58:54;;;;;;;57.57;2.70;;;;;;;;;;5071590;28;20451;-67
2023/05/12 01:01:22;;;;;;;57.40;2.40;;;;;;;;;;5072081;28;20463;-67
2023/05/12 01:03:50;;;;;;;58.67;2.73;;;;;;;;;;5072103;28;20455;-67
2023/05/12 01:06:18;;;;;;;57.50;2.63;;;;;;;;;;5072216;28;20459;-67
2023/05/12 01:08:48;;;;;;;58.87;4.00;;;;;;;;;;5072037;28;20823;-67
2023/05/12 01:11:15;;;;;;;57.00;2.47;;;;;;;;;;5071596;28;20483;-67
2023/05/12 01:13:42;;;;;;;57.47;2.70;;;;;;;;;;5071962;28;20455;-67
2023/05/12 01:16:10;;;;;;;57.17;2.43;;;;;;;;;;5071769;28;20542;-67
2023/05/12 01:18:38;;;;;;;57.30;2.47;;;;;;;;;;5071146;28;20451;-67
2023/05/12 01:21:05;;;;;;;57.90;2.40;;;;;;;;;;5071631;28;20513;-67
2023/05/12 01:23:35;;;;;;;57.60;2.70;;;;;;;;;;5071919;28;20447;-67
2023/05/12 01:26:06;;;;;;;57.43;2.40;;;;;;;;;;5071755;28;20455;-67
2023/05/12 01:28:33;;;;;;;57.47;2.40;;;;;;;;;;5071485;28;20451;-67
2023/05/12 01:31:01;;;;;;;57.30;2.40;;;;;;;;;;5071649;28;20483;-67
2023/05/12 01:33:28;;;;;;;57.37;3.10;;;;;;;;;;5071848;28;20970;-67
2023/05/12 01:35:55;;;;;;;57.13;2.70;;;;;;;;;;5071510;28;20447;-67
2023/05/12 01:38:22;;;;;;;57.80;3.37;;;;;;;;;;5071777;28;20455;-67
2023/05/12 01:40:49;;;;;;;57.47;2.60;;;;;;;;;;5071336;28;20509;-67
2023/05/12 01:43:18;;;;;;;57.33;2.30;;;;;;;;;;5071648;28;20892;-67
2023/05/12 01:45:45;;;;;;;58.30;4.20;;;;;;;;;;5071580;28;20458;-67
2023/05/12 01:48:12;;;;;;;57.27;2.50;;;;;;;;;;5071362;28;20457;-67
2023/05/12 01:50:41;;;;;;;57.40;2.23;;;;;;;;;;5071038;28;20487;-67
2023/05/12 01:53:09;;;;;;;57.57;2.87;;;;;;;;;;5069921;28;20459;-67
2023/05/12 01:55:36;;;;;;;57.47;2.60;;;;;;;;;;5071279;28;20456;-67
2023/05/12 01:58:03;;;;;;;58.00;3.00;;;;;;;;;;5071481;28;20483;-67
2023/05/12 02:00:31;;;;;;;56.73;2.57;;;;;;;;;;5071171;28;20845;-67
2023/05/12 02:02:58;;;;;;;57.20;2.37;;;;;;;;;;5071572;28;21019;-67
2023/05/12 02:05:26;;;;;;;57.50;2.50;;;;;;;;;;5071788;28;20476;-67
2023/05/12 02:07:53;;;;;;;57.40;2.50;;;;;;;;;;5071466;28;20965;-67
2023/05/12 02:10:20;;;;;;;57.90;3.77;;;;;;;;;;5070748;28;20515;-67
2023/05/12 02:12:48;;;;;;;57.17;2.30;;;;;;;;;;5071509;28;20866;-67
2023/05/12 02:15:15;;;;;;;57.57;2.60;;;;;;;;;;5071324;28;20443;-67
2023/05/12 02:17:43;;;;;;;58.07;2.60;;;;;;;;;;5071202;28;20936;-67
2023/05/12 02:20:11;;;;;;;57.00;2.23;;;;;;;;;;5070880;28;20471;-67
2023/05/12 02:22:38;;;;;;;57.30;2.27;;;;;;;;;;5071061;28;20455;-67
2023/05/12 02:25:06;;;;;;;57.60;2.80;;;;;;;;;;5071017;28;20460;-67
2023/05/12 02:27:33;;;;;;;57.30;2.50;;;;;;;;;;5071329;28;20444;-67
2023/05/12 02:30:00;;;;;;;57.50;2.60;;;;;;;;;;5073132;28;20574;-67
2023/05/12 02:32:28;;;;;;;57.60;2.70;;;;;;;;;;5074853;28;20550;-67
2023/05/12 02:34:57;;;;;;;57.33;2.50;;;;;;;;;;5074697;28;20482;-67
2023/05/12 02:37:24;;;;;;;57.03;2.60;;;;;;;;;;5074447;28;20443;-67
2023/05/12 02:39:51;;;;;;;57.40;2.70;;;;;;;;;;5074051;28;20451;-67
2023/05/12 02:42:18;;;;;;;57.40;2.30;;;;;;;;;;5074877;28;20449;-67
2023/05/12 02:44:45;;;;;;;57.17;2.20;;;;;;;;;;5074698;28;20451;-67
2023/05/12 02:47:12;;;;;;;57.20;2.57;;;;;;;;;;5074464;28;20451;-67
2023/05/12 02:49:39;;;;;;;56.77;2.40;;;;;;;;;;5073953;28;20453;-67
2023/05/12 02:52:08;;;;;;;56.80;2.40;;;;;;;;;;5074203;28;20447;-67
2023/05/12 02:54:35;;;;;;;57.33;2.37;;;;;;;;;;5074405;28;20458;-67
2023/05/12 02:57:04;;;;;;;57.40;2.60;;;;;;;;;;5074504;28;20458;-67
2023/05/12 02:59:31;;;;;;;57.40;2.90;;;;;;;;;;5073921;28;20534;-67
2023/05/12 03:01:59;;;;;;;57.30;2.30;;;;;;;;;;5074174;28;20464;-67
2023/05/12 03:04:26;;;;;;;57.17;2.30;;;;;;;;;;5074010;28;20831;-67
2023/05/12 03:06:53;;;;;;;57.30;2.50;;;;;;;;;;5074453;28;20454;-67
2023/05/12 03:09:21;;;;;;;57.30;2.30;;;;;;;;;;5073661;28;20450;-67
2023/05/12 03:11:48;;;;;;;57.23;2.40;;;;;;;;;;5073945;28;20491;-67
2023/05/12 03:14:15;;;;;;;56.97;2.40;;;;;;;;;;5073888;28;20456;-67
2023/05/12 03:16:43;;;;;;;57.30;2.33;;;;;;;;;;5073893;28;20474;-67
2023/05/12 03:19:10;;;;;;;57.70;3.47;;;;;;;;;;5073417;28;20447;-67
2023/05/12 03:21:37;;;;;;;57.33;2.47;;;;;;;;;;5073830;28;20486;-67
2023/05/12 03:24:04;;;;;;;58.30;3.37;;;;;;;;;;5073796;28;20463;-67
2023/05/12 03:26:33;;;;;;;57.50;3.00;;;;;;;;;;5073773;28;20466;-67
2023/05/12 03:29:00;;;;;;;57.57;2.40;;;;;;;;;;5073350;28;20455;-67
2023/05/12 03:31:27;;;;;;;57.80;3.17;;;;;;;;;;5073512;28;20514;-67
2023/05/12 03:33:54;;;;;;;57.40;2.50;;;;;;;;;;5073674;28;20460;-67
2023/05/12 03:36:22;;;;;;;57.60;3.27;;;;;;;;;;5073445;28;20456;-67
2023/05/12 03:38:50;;;;;;;57.23;2.40;;;;;;;;;;5073525;28;20451;-67
2023/05/12 03:41:17;;;;;;;57.07;2.50;;;;;;;;;;5072388;28;20467;-67
2023/05/12 03:43:46;;;;;;;57.83;3.73;;;;;;;;;;5073315;28;20453;-67
2023/05/12 03:46:13;;;;;;;57.30;2.60;;;;;;;;;;5073189;28;20958;-67
2023/05/12 03:48:40;;;;;;;57.37;2.50;;;;;;;;;;5073176;28;20451;-67
2023/05/12 03:51:07;;;;;;;57.40;3.10;;;;;;;;;;5073061;28;20493;-67
2023/05/12 03:53:34;;;;;;;57.23;2.80;;;;;;;;;;5073279;28;20457;-67
2023/05/12 03:56:04;;;;;;;57.60;2.93;;;;;;;;;;5073398;28;20453;-67
2023/05/12 03:58:31;;;;;;;57.50;2.90;;;;;;;;;;5072774;28;20447;-67
2023/05/12 04:01:01;;;;;;;58.33;3.90;;;;;;;;;;5072911;28;20819;-67
2023/05/12 04:03:28;;;;;;;56.77;2.40;;;;;;;;;;5073094;28;20865;-67
2023/05/12 04:05:58;;;;;;;56.37;2.30;;;;;;;;;;5072919;28;20455;-67
2023/05/12 04:08:26;;;;;;;57.40;3.00;;;;;;;;;;5072659;28;20546;-67
2023/05/12 04:10:55;;;;;;;57.10;2.53;;;;;;;;;;5072481;28;20540;-67
2023/05/12 04:13:22;;;;;;;57.40;2.47;;;;;;;;;;5072602;28;20451;-67
2023/05/12 04:15:49;;;;;;;57.13;2.40;;;;;;;;;;5072701;28;20455;-67
2023/05/12 04:18:17;;;;;;;57.37;2.80;;;;;;;;;;5072705;28;20443;-67
2023/05/12 04:20:44;;;;;;;57.20;2.47;;;;;;;;;;5072381;28;20830;-67
2023/05/12 04:23:13;;;;;;;59.07;3.70;;;;;;;;;;5072541;28;20447;-67
2023/05/12 04:25:41;;;;;;;57.27;2.53;;;;;;;;;;5072548;28;20466;-67
2023/05/12 04:28:08;;;;;;;57.10;2.40;;;;;;;;;;5072574;28;20937;-67
2023/05/12 04:30:35;;;;;;;57.90;3.10;;;;;;;;;;5072208;28;20827;-67
2023/05/12 04:33:03;;;;;;;57.20;2.30;;;;;;;;;;5072522;28;20546;-67
2023/05/12 04:35:31;;;;;;;57.10;2.23;;;;;;;;;;5072371;28;20451;-67
2023/05/12 04:38:00;;;;;;;57.17;2.40;;;;;;;;;;5072151;28;20974;-67
2023/05/12 04:40:27;;;;;;;57.17;3.17;;;;;;;;;;5071854;28;20525;-67
2023/05/12 04:42:54;;;;;;;57.07;2.30;;;;;;;;;;5072368;28;20844;-67
2023/05/12 04:45:21;;;;;;;57.07;2.40;;;;;;;;;;5072308;28;20458;-67
2023/05/12 04:47:48;;;;;;;58.27;2.50;;;;;;;;;;5072208;28;20454;-67
2023/05/12 04:50:16;;;;;;;57.53;3.27;;;;;;;;;;5072219;28;20467;-67
2023/05/12 04:52:44;;;;;;;57.10;2.60;;;;;;;;;;5072449;28;20447;-67
2023/05/12 04:55:11;;;;;;;57.27;2.63;;;;;;;;;;5072135;28;20452;-67
2023/05/12 04:57:40;;;;;;;59.80;4.70;;;;;;;;;;5072162;28;20450;-67
2023/05/12 05:00:07;;;;;;;56.87;2.40;;;;;;;;;;5071518;28;20471;-67
2023/05/12 05:02:35;;;;;;;57.20;2.60;;;;;;;;;;5071897;28;20440;-67
2023/05/12 05:05:02;;;;;;;56.93;2.23;;;;;;;;;;5071835;28;20542;-67
2023/05/12 05:07:29;;;;;;;57.60;3.10;;;;;;;;;;5071727;28;20454;-67
2023/05/12 05:09:57;;;;;;;56.97;2.27;;;;;;;;;;5071606;28;20450;-67
2023/05/12 05:12:25;;;;;;;57.07;2.60;;;;;;;;;;5071858;28;20479;-67
2023/05/12 05:14:52;;;;;;;57.60;2.83;;;;;;;;;;5072038;28;20505;-67
2023/05/12 05:17:19;;;;;;;57.50;2.77;;;;;;;;;;5071711;28;20451;-67
2023/05/12 05:19:46;;;;;;;57.33;2.77;;;;;;;;;;5071245;28;20466;-67
2023/05/12 05:22:13;;;;;;;57.03;2.40;;;;;;;;;;5071590;28;20449;-67
2023/05/12 05:24:41;;;;;;;57.17;2.50;;;;;;;;;;5071786;28;20463;-67
2023/05/12 05:27:09;;;;;;;57.37;2.67;;;;;;;;;;5071790;28;20451;-67
2023/05/12 05:29:36;;;;;;;57.33;3.33;;;;;;;;;;5071363;28;20451;-67
2023/05/12 05:32:04;;;;;;;57.30;3.40;;;;;;;;;;5071452;28;20485;-67
2023/05/12 05:34:31;;;;;;;57.00;2.67;;;;;;;;;;5071501;28;20943;-67
2023/05/12 05:36:58;;;;;;;57.57;2.60;;;;;;;;;;5071563;28;20458;-67
2023/05/12 05:39:29;;;;;;;57.47;3.03;;;;;;;;;;5071411;28;20448;-67
2023/05/12 05:41:56;;;;;;;58.50;4.50;;;;;;;;;;5071594;28;20471;-67
2023/05/12 05:44:25;;;;;;;57.17;2.30;;;;;;;;;;5071488;28;20447;-67
2023/05/12 05:46:52;;;;;;;57.67;3.33;;;;;;;;;;5071507;28;20469;-67
2023/05/12 05:49:19;;;;;;;57.30;2.60;;;;;;;;;;5071317;28;20451;-67
2023/05/12 05:51:46;;;;;;;57.00;2.30;;;;;;;;;;5071699;28;20486;-67
2023/05/12 05:54:13;;;;;;;56.97;2.50;;;;;;;;;;5071611;28;20816;-67
2023/05/12 05:56:40;;;;;;;58.20;3.60;;;;;;;;;;5071447;28;20447;-67
2023/05/12 05:59:08;;;;;;;57.30;2.77;;;;;;;;;;5071013;28;20451;-67
2023/05/12 06:01:37;;;;;;;57.20;3.00;;;;;;;;;;5071185;28;20463;-67
2023/05/12 06:04:04;;;;;;;57.37;2.80;;;;;;;;;;5072182;28;20454;-67
2023/05/12 06:06:31;;;;;;;57.13;2.47;;;;;;;;;;5075276;28;20455;-67
2023/05/12 06:08:58;;;;;;;57.07;2.73;;;;;;;;;;5074762;28;20443;-67
2023/05/12 06:11:25;;;;;;;57.70;2.80;;;;;;;;;;5074929;28;20489;-67
2023/05/12 06:13:52;;;;;;;57.07;2.73;;;;;;;;;;5074974;28;20474;-67
2023/05/12 06:16:19;;;;;;;56.97;2.37;;;;;;;;;;5074844;28;20455;-67
2023/05/12 06:18:48;;;;;;;57.10;2.40;;;;;;;;;;5074685;28;20470;-67
2023/05/12 06:21:15;;;;;;;57.60;3.13;;;;;;;;;;5074716;28;20478;-67
2023/05/12 06:23:42;;;;;;;57.20;2.70;;;;;;;;;;5074838;28;20473;-67
2023/05/12 06:26:10;;;;;;;57.57;3.07;;;;;;;;;;5075075;28;20454;-67
2023/05/12 06:28:37;;;;;;;57.00;2.80;;;;;;;;;;5074178;28;20451;-67
2023/05/12 06:31:07;;;;;;;57.20;2.80;;;;;;;;;;5074776;28;20489;-67
2023/05/12 06:33:35;;;;;;;57.80;4.20;;;;;;;;;;5074547;28;21019;-67
2023/05/12 06:36:04;;;;;;;57.10;2.57;;;;;;;;;;5074889;28;20932;-67
2023/05/12 06:38:31;;;;;;;56.93;2.37;;;;;;;;;;5074210;28;20451;-67
2023/05/12 06:40:58;;;;;;;57.50;2.83;;;;;;;;;;5074414;28;20463;-67
2023/05/12 06:43:26;;;;;;;58.27;3.03;;;;;;;;;;5074599;28;20458;-67
2023/05/12 06:45:55;;;;;;;57.70;2.60;;;;;;;;;;5074619;28;20509;-67
2023/05/12 06:48:23;;;;;;;56.73;2.10;;;;;;;;;;5074382;28;20447;-67
2023/05/12 06:50:50;;;;;;;57.30;2.40;;;;;;;;;;5074236;28;20475;-67
2023/05/12 06:53:18;;;;;;;56.77;2.10;;;;;;;;;;5074321;28;20940;-67
2023/05/12 06:55:46;;;;;;;56.77;2.10;;;;;;;;;;5074113;28;20451;-68
2023/05/12 06:58:13;;;;;;;57.10;3.07;;;;;;;;;;5074278;28;20459;-68
2023/05/12 07:00:40;;;;;;;57.17;2.30;;;;;;;;;;5073965;28;20468;-68
2023/05/12 07:03:08;;;;;;;58.70;3.13;;;;;;;;;;5074061;28;20447;-68
2023/05/12 07:05:36;;;;;;;57.90;2.83;;;;;;;;;;5074150;28;20475;-68
2023/05/12 07:08:03;;;;;;;56.70;2.20;;;;;;;;;;5073986;28;20458;-68
2023/05/12 07:10:32;;;;;;;56.67;2.20;;;;;;;;;;5073435;28;20819;-68
2023/05/12 07:12:59;;;;;;;56.77;2.20;;;;;;;;;;5073914;28;20490;-68
2023/05/12 07:15:26;;;;;;;57.20;2.63;;;;;;;;;;5073537;28;20935;-68
2023/05/12 07:17:54;;;;;;;57.10;2.40;;;;;;;;;;5073914;28;20815;-68
2023/05/12 07:20:21;;;;;;;57.13;2.27;;;;;;;;;;5073505;28;20551;-68
2023/05/12 07:22:50;;;;;;;57.07;2.63;;;;;;;;;;5073538;28;20456;-68
2023/05/12 07:25:17;;;;;;;56.87;2.33;;;;;;;;;;5073757;28;20459;-68
2023/05/12 07:27:46;;;;;;;57.30;3.03;;;;;;;;;;5073593;28;20455;-68
2023/05/12 07:30:13;;;;;;;56.63;2.23;;;;;;;;;;5073183;28;20468;-68
2023/05/12 07:32:40;;;;;;;57.40;2.73;;;;;;;;;;5073494;28;20483;-68
2023/05/12 07:35:08;;;;;;;56.90;2.77;;;;;;;;;;5073463;28;20455;-68
2023/05/12 07:37:35;;;;;;;56.67;2.30;;;;;;;;;;5073375;28;20668;-68
2023/05/12 07:40:03;;;;;;;56.97;2.50;;;;;;;;;;5073189;28;20471;-68
2023/05/12 07:42:30;;;;;;;56.77;2.40;;;;;;;;;;5073327;28;20932;-68
2023/05/12 07:44:59;;;;;;;57.40;3.10;;;;;;;;;;5073485;28;20447;-68
2023/05/12 07:47:27;;;;;;;56.77;2.30;;;;;;;;;;5073252;28;20450;-69
2023/05/12 07:49:54;;;;;;;56.87;2.40;;;;;;;;;;5072686;28;20455;-69
2023/05/12 07:52:22;;;;;;;56.83;2.60;;;;;;;;;;5073201;28;20497;-69
2023/05/12 07:54:50;;;;;;;56.83;2.07;;;;;;;;;;5073558;28;20461;-69
2023/05/12 07:57:17;;;;;;;56.90;2.00;;;;;;;;;;5073162;28;20827;-69
2023/05/12 07:59:44;;;;;;;56.90;2.27;;;;;;;;;;5072949;28;20447;-69
2023/05/12 08:02:12;;;;;;;57.40;3.50;;;;;;;;;;5072876;28;20455;-69
2023/05/12 08:04:39;;;;;;;56.93;2.30;;;;;;;;;;5072805;28;20459;-68
2023/05/12 08:07:06;;;;;;;56.90;2.20;;;;;;;;;;5072746;28;20940;-68
2023/05/12 08:09:34;;;;;;;56.87;2.07;;;;;;;;;;5072666;28;20497;-68
2023/05/12 08:12:01;;;;;;;56.73;2.13;;;;;;;;;;5072796;28;20487;-69
2023/05/12 08:14:28;;;;;;;56.73;2.13;;;;;;;;;;5072643;28;20497;-69
2023/05/12 08:16:55;;;;;;;56.77;2.00;;;;;;;;;;5072538;28;20443;-69
2023/05/12 08:19:23;;;;;;;57.20;2.10;;;;;;;;;;5072470;28;20447;-69
2023/05/12 08:21:51;;;;;;;56.97;2.50;;;;;;;;;;5072742;28;20489;-69
2023/05/12 08:24:18;;;;;;;56.87;2.00;;;;;;;;;;5072495;28;20466;-69
2023/05/12 08:26:45;;;;;;;58.30;2.83;;;;;;;;;;5072038;28;20790;-69
2023/05/12 08:29:13;;;;;;;56.87;2.20;;;;;;;;;;5072594;28;20454;-69
2023/05/12 08:31:40;;;;;;;57.03;2.10;;;;;;;;;;5072147;28;20868;-69
2023/05/12 08:34:07;;;;;;;56.87;2.40;;;;;;;;;;5072679;28;20447;-69
2023/05/12 08:36:35;;;;;;;56.93;2.23;;;;;;;;;;5072532;28;20832;-69
2023/05/12 08:39:03;;;;;;;56.77;1.90;;;;;;;;;;5071856;28;20457;-69
2023/05/12 08:41:34;;;;;;;56.90;2.10;;;;;;;;;;5072222;28;20467;-69
2023/05/12 08:44:02;;;;;;;57.00;2.20;;;;;;;;;;5072100;28;20440;-69
2023/05/12 08:46:31;;;;;;;56.80;2.10;;;;;;;;;;5072308;28;20447;-69
2023/05/12 08:49:00;;;;;;;56.97;2.00;;;;;;;;;;5071920;28;20449;-69
2023/05/12 08:51:28;;;;;;;56.87;2.07;;;;;;;;;;5072281;28;20848;-69
2023/05/12 08:53:57;;;;;;;57.07;2.10;;;;;;;;;;5072015;28;20491;-69
2023/05/12 08:56:25;;;;;;;56.87;2.20;;;;;;;;;;5072048;28;20444;-69
2023/05/12 08:58:52;;;;;;;57.00;2.30;;;;;;;;;;5071509;28;20451;-69
2023/05/12 09:01:20;;;;;;;56.83;2.10;;;;;;;;;;5069126;28;20468;-68
2023/05/12 09:03:47;;;;;;;56.87;2.00;;;;;;;;;;5071401;28;20466;-68
2023/05/12 09:06:14;;;;;;;56.93;2.07;;;;;;;;;;5071141;28;20454;-68
2023/05/12 09:08:41;;;;;;;57.40;2.10;;;;;;;;;;5070919;28;20451;-68
2023/05/12 09:11:11;;;;;;;57.10;2.20;;;;;;;;;;5070969;28;20473;-68
2023/05/12 09:13:45;;;;;;;62.40;2.40;;;;;;;;;;5071595;28;20486;-68
2023/05/12 09:16:12;;;;;;;56.80;2.00;;;;;;;;;;5071780;28;20462;-68
2023/05/12 09:18:46;;;;;;;56.73;2.03;;;;;;;;;;5071113;28;20447;-69
2023/05/12 09:21:14;;;;;;;56.40;2.00;;;;;;;;;;5071545;28;20475;-68
2023/05/12 09:23:41;;;;;;;56.77;2.03;;;;;;;;;;5071326;28;20439;-69
2023/05/12 09:26:08;;;;;;;56.97;2.10;;;;;;;;;;5071715;28;20458;-69
2023/05/12 09:28:37;;;;;;;57.50;2.20;;;;;;;;;;5071316;28;20823;-69
2023/05/12 09:31:15;;;;;;;56.83;2.00;;;;;;;;;;5071640;28;20498;-68
2023/05/12 09:33:42;;;;;;;56.90;2.10;;;;;;;;;;5071375;28;20483;-68
2023/05/12 09:36:09;;;;;;;56.57;2.00;;;;;;;;;;5071260;28;20447;-69
2023/05/12 09:38:36;;;;;;;56.57;1.87;;;;;;;;;;5072722;28;20821;-68
2023/05/12 09:41:03;;;;;;;56.77;1.97;;;;;;;;;;5075522;28;20494;-68
2023/05/12 09:43:31;;;;;;;57.27;2.33;;;;;;;;;;5075545;28;20439;-68
2023/05/12 09:46:04;;;;;;;56.80;1.90;;;;;;;;;;5075626;28;20920;-68
2023/05/12 09:48:32;;;;;;;56.73;1.90;;;;;;;;;;5075148;28;20827;-68
2023/05/12 09:50:59;;;;;;;56.73;2.07;;;;;;;;;;5075249;28;20513;-69
2023/05/12 09:53:26;;;;;;;56.83;2.00;;;;;;;;;;5075495;28;20483;-69
2023/05/12 09:55:53;;;;;;;56.87;2.63;;;;;;;;;;5075439;28;20444;-69
2023/05/12 09:58:21;;;;;;;56.90;2.10;;;;;;;;;;5075684;28;20454;-69
2023/05/12 10:00:48;;;;;;;56.97;2.20;;;;;;;;;;5075469;28;20475;-69
2023/05/12 10:03:17;;;;;;;56.70;2.00;;;;;;;;;;5075093;28;20950;-68
2023/05/12 10:05:49;;;;;;;57.10;2.30;;;;;;;;;;5075108;28;20948;-68
2023/05/12 10:08:18;;;;;;;56.87;2.43;;;;;;;;;;5075318;28;20454;-69
2023/05/12 10:10:47;;;;;;;57.37;2.43;;;;;;;;;;5074826;28;20984;-68
2023/05/12 10:13:14;;;;;;;56.77;2.03;;;;;;;;;;5074980;28;20478;-68
2023/05/12 10:15:41;;;;;;;57.13;2.50;;;;;;;;;;5074838;28;20447;-69
2023/05/12 10:18:09;;;;;;;56.80;2.07;;;;;;;;;;5074755;28;20451;-68
2023/05/12 10:20:37;;;;;;;56.93;2.13;;;;;;;;;;5074708;28;20570;-68
2023/05/12 10:23:06;;;;;;;57.37;2.63;;;;;;;;;;5075010;28;20823;-69
2023/05/12 10:25:33;;;;;;;57.67;2.30;;;;;;;;;;5074743;28;20831;-69
2023/05/12 10:28:02;;;;;;;56.90;2.10;;;;;;;;;;5074665;28;20451;-69
2023/05/12 10:30:30;;;;;;;56.97;2.40;;;;;;;;;;5074275;28;20903;-69
2023/05/12 10:32:57;;;;;;;56.83;1.97;;;;;;;;;;5074764;28;20479;-69
2023/05/12 10:35:32;;;;;;;56.70;2.10;;;;;;;;;;5074847;28;20567;-69
2023/05/12 10:38:03;;;;;;;56.80;1.97;;;;;;;;;;5074756;28;20481;-69
2023/05/12 10:40:30;;;;;;;56.80;2.00;;;;;;;;;;5074196;28;20471;-69
2023/05/12 10:43:00;;;;;;;56.73;2.00;;;;;;;;;;5074568;28;20451;-69
2023/05/12 10:45:27;;;;;;;56.90;2.10;;;;;;;;;;5074766;28;20447;-69
2023/05/12 10:48:04;;;;;;;56.67;2.00;;;;;;;;;;5074599;28;20448;-69
2023/05/12 10:50:31;;;;;;;57.00;2.10;;;;;;;;;;5073534;28;20469;-69
2023/05/12 10:52:59;;;;;;;56.73;2.10;;;;;;;;;;5074238;28;20485;-69
2023/05/12 10:55:34;;;;;;;56.80;2.20;;;;;;;;;;5074361;28;20808;-69
2023/05/12 10:58:05;;;;;;;56.77;2.10;;;;;;;;;;5074216;28;20449;-69
2023/05/12 11:00:33;;;;;;;56.77;2.00;;;;;;;;;;5073909;28;20487;-69
2023/05/12 11:03:03;;;;;;;56.80;2.00;;;;;;;;;;5074061;28;20505;-69
2023/05/12 11:05:34;;;;;;;56.67;2.20;;;;;;;;;;5074104;28;20443;-69
2023/05/12 11:08:01;;;;;;;57.60;2.47;;;;;;;;;;5074363;28;20436;-69
2023/05/12 11:10:29;;;;;;;56.90;2.30;;;;;;;;;;5074011;28;20467;-69
2023/05/12 11:12:57;;;;;;;56.70;2.00;;;;;;;;;;5074223;28;20561;-69
2023/05/12 11:15:26;;;;;;;56.77;2.30;;;;;;;;;;5073993;28;20448;-68
2023/05/12 11:17:53;;;;;;;56.47;2.10;;;;;;;;;;5073921;28;20451;-69
2023/05/12 11:20:23;;;;;;;56.47;1.90;;;;;;;;;;5073378;28;20474;-69
2023/05/12 11:22:50;;;;;;;56.90;2.00;;;;;;;;;;5073707;28;20951;-68
2023/05/12 11:25:18;;;;;;;56.67;2.03;;;;;;;;;;5073567;28;20467;-69
2023/05/12 11:27:48;;;;;;;56.50;2.00;;;;;;;;;;5073714;28;20451;-69
2023/05/12 11:30:18;;;;;;;56.70;2.20;;;;;;;;;;5073307;28;20820;-69
2023/05/12 11:32:45;;;;;;;56.77;2.20;;;;;;;;;;5073224;28;20479;-69
2023/05/12 11:35:13;;;;;;;56.87;1.97;;;;;;;;;;5073513;28;20443;-69
2023/05/12 11:37:41;;;;;;;56.93;2.40;;;;;;;;;;5073530;28;20561;-69
2023/05/12 11:40:14;;;;;;;57.07;2.33;;;;;;;;;;5073184;28;20476;-69
2023/05/12 11:42:47;;;;;;;56.87;1.97;;;;;;;;;;5073261;28;20455;-69
2023/05/12 11:45:22;;;;;;;57.27;2.17;;;;;;;;;;5073482;28;20454;-69
2023/05/12 11:47:49;;;;;;;56.90;2.17;;;;;;;;;;5073099;28;20458;-69
2023/05/12 11:50:23;;;;;;;56.80;1.90;;;;;;;;;;5071874;28;20464;-69
2023/05/12 11:52:50;;;;;;;56.90;2.07;;;;;;;;;;5073158;28;20491;-69
2023/05/12 11:55:22;;;;;;;56.60;2.10;;;;;;;;;;5072998;28;20447;-69
2023/05/12 11:57:56;;;;;;;57.37;3.40;;;;;;;;;;5072875;28;20504;-69
2023/05/12 12:00:29;;;;;;;56.67;2.07;;;;;;;;;;5072618;28;20492;-69
2023/05/12 12:03:10;;;;;;;56.83;2.00;;;;;;;;;;5072143;28;20486;-69
2023/05/12 12:05:37;;;;;;;56.83;2.17;;;;;;;;;;5072949;28;20443;-69
2023/05/12 12:08:05;;;;;;;56.67;1.90;;;;;;;;;;5072700;28;20493;-69
2023/05/12 12:10:32;;;;;;;56.90;2.10;;;;;;;;;;5072879;28;20820;-69
2023/05/12 12:13:01;;;;;;;56.70;1.97;;;;;;;;;;5072934;28;20485;-69
2023/05/12 12:15:29;;;;;;;56.63;2.10;;;;;;;;;;5072879;28;20524;-69
2023/05/12 12:17:56;;;;;;;56.47;1.80;;;;;;;;;;5072711;28;20462;-69
2023/05/12 12:20:24;;;;;;;56.80;2.10;;;;;;;;;;5072260;28;20993;-69
2023/05/12 12:22:51;;;;;;;57.00;2.10;;;;;;;;;;5072509;28;20451;-69
2023/05/12 12:25:19;;;;;;;56.57;1.90;;;;;;;;;;5072415;28;20466;-69
2023/05/12 12:27:47;;;;;;;56.63;2.13;;;;;;;;;;5072641;28;20530;-69
2023/05/12 12:30:15;;;;;;;56.70;2.00;;;;;;;;;;5072114;28;20472;-69
2023/05/12 12:32:44;;;;;;;56.83;1.80;;;;;;;;;;5072381;28;20447;-69
2023/05/12 12:35:12;;;;;;;56.57;1.80;;;;;;;;;;5072399;28;20546;-69
2023/05/12 12:37:39;;;;;;;56.27;1.90;;;;;;;;;;5072187;28;20533;-69
2023/05/12 12:40:08;;;;;;;57.00;2.20;;;;;;;;;;5071977;28;20459;-69
2023/05/12 12:42:36;;;;;;;56.70;2.10;;;;;;;;;;5072466;28;20457;-69
2023/05/12 12:45:03;;;;;;;56.90;2.40;;;;;;;;;;5072221;28;20443;-69
2023/05/12 12:47:30;;;;;;;56.97;2.60;;;;;;;;;;5072083;28;20940;-69
2023/05/12 12:49:59;;;;;;;56.67;2.03;;;;;;;;;;5071494;28;20450;-69
2023/05/12 12:52:26;;;;;;;56.80;2.03;;;;;;;;;;5072261;28;20447;-69
2023/05/12 12:54:53;;;;;;;56.57;1.90;;;;;;;;;;5071985;28;20536;-69
2023/05/12 12:57:21;;;;;;;57.27;2.37;;;;;;;;;;5072133;28;20497;-69
2023/05/12 12:59:49;;;;;;;57.60;3.07;;;;;;;;;;5071632;28;20455;-69
2023/05/12 13:02:16;;;;;;;57.37;2.73;;;;;;;;;;5072074;28;20470;-69
2023/05/12 13:04:43;;;;;;;56.90;2.17;;;;;;;;;;5072091;28;20536;-69
2023/05/12 13:07:12;;;;;;;56.87;2.07;;;;;;;;;;5072277;28;20454;-69
2023/05/12 13:09:39;;;;;;;57.17;2.30;;;;;;;;;;5071845;28;20477;-69
2023/05/12 13:12:06;;;;;;;56.80;1.97;;;;;;;;;;5072004;28;20453;-69
2023/05/12 13:14:33;;;;;;;56.87;2.30;;;;;;;;;;5071496;28;20485;-69
2023/05/12 13:17:01;;;;;;;56.77;2.13;;;;;;;;;;5071642;28;20448;-69
2023/05/12 13:19:28;;;;;;;57.17;2.20;;;;;;;;;;5071643;28;20439;-69
2023/05/12 13:21:55;;;;;;;57.20;2.60;;;;;;;;;;5071892;28;20471;-69
2023/05/12 13:24:24;;;;;;;57.80;3.43;;;;;;;;;;5071592;28;20463;-69
2023/05/12 13:26:51;;;;;;;56.90;2.17;;;;;;;;;;5071881;28;20455;-69
2023/05/12 13:29:18;;;;;;;57.00;2.40;;;;;;;;;;5071298;28;20451;-69
2023/05/12 13:31:45;;;;;;;56.93;2.20;;;;;;;;;;5071531;28;20479;-69
2023/05/12 13:34:12;;;;;;;56.77;2.23;;;;;;;;;;5071711;28;20859;-69
2023/05/12 13:36:40;;;;;;;56.70;2.00;;;;;;;;;;5071695;28;20449;-69
2023/05/12 13:39:08;;;;;;;56.87;2.37;;;;;;;;;;5071202;28;20443;-69
2023/05/12 13:41:37;;;;;;;57.10;2.30;;;;;;;;;;5071492;28;20835;-69
2023/05/12 13:44:05;;;;;;;58.23;2.37;;;;;;;;;;5071352;28;20939;-69
2023/05/12 13:46:32;;;;;;;56.97;2.00;;;;;;;;;;5071670;28;20447;-69
2023/05/12 13:48:59;;;;;;;57.40;3.80;;;;;;;;;;5071245;28;20448;-69
2023/05/12 13:51:26;;;;;;;56.67;2.00;;;;;;;;;;5071660;28;20513;-69
2023/05/12 13:53:53;;;;;;;56.43;2.10;;;;;;;;;;5071379;28;20483;-69
2023/05/12 13:56:20;;;;;;;57.80;3.93;;;;;;;;;;5071387;28;20457;-69
2023/05/12 13:58:49;;;;;;;58.47;3.40;;;;;;;;;;5070932;28;20455;-69
2023/05/12 14:01:16;;;;;;;56.87;1.90;;;;;;;;;;5071168;28;20475;-69
2023/05/12 14:03:44;;;;;;;56.90;2.37;;;;;;;;;;5071660;28;20443;-69
2023/05/12 14:06:11;;;;;;;56.97;2.30;;;;;;;;;;5071410;28;20462;-69
2023/05/12 14:08:40;;;;;;;57.00;2.40;;;;;;;;;;5070983;28;20451;-69
2023/05/12 14:11:07;;;;;;;56.90;2.40;;;;;;;;;;5071050;28;20831;-69
2023/05/12 14:13:34;;;;;;;56.50;2.00;;;;;;;;;;5071338;28;20482;-69
2023/05/12 14:16:03;;;;;;;56.57;1.97;;;;;;;;;;5071429;28;20478;-69
2023/05/12 14:18:30;;;;;;;56.77;2.20;;;;;;;;;;5071121;28;20502;-69
2023/05/12 14:20:57;;;;;;;56.63;2.07;;;;;;;;;;5071121;28;20464;-69
2023/05/12 14:23:25;;;;;;;56.57;1.97;;;;;;;;;;5071061;28;20542;-69
2023/05/12 14:25:52;;;;;;;57.60;2.30;;;;;;;;;;5073304;28;20455;-68
2023/05/12 14:28:21;;;;;;;57.03;2.27;;;;;;;;;;5075046;28;20455;-69
2023/05/12 14:30:48;;;;;;;56.67;2.10;;;;;;;;;;5074520;28;20533;-69
2023/05/12 14:33:16;;;;;;;56.90;1.90;;;;;;;;;;5074780;28;20455;-69
2023/05/12 14:35:43;;;;;;;56.77;1.70;;;;;;;;;;5074693;28;20682;-69